sensor_id;sensor_type;location;lat;lon;timestamp;temperature;humidity
45537;DHT22;31262;51.978;5.924;2022-11-20T00:02:10;8.60;53.40
45537;DHT22;31262;51.978;5.924;2022-11-20T00:04:35;8.60;53.50
45537;DHT22;31262;51.978;5.924;2022-11-20T00:07:01;8.40;53.30
45537;DHT22;31262;51.978;5.924;2022-11-20T00:09:26;8.50;53.50
45537;DHT22;31262;51.978;5.924;2022-11-20T00:11:51;8.30;53.50
45537;DHT22;31262;51.978;5.924;2022-11-20T00:14:17;8.20;53.60
45537;DHT22;31262;51.978;5.924;2022-11-20T00:16:42;8.20;53.80
45537;DHT22;31262;51.978;5.924;2022-11-20T00:19:09;8.20;53.90
45537;DHT22;31262;51.978;5.924;2022-11-20T00:21:34;8.20;54.00
45537;DHT22;31262;51.978;5.924;2022-11-20T00:24:00;8.20;53.90
45537;DHT22;31262;51.978;5.924;2022-11-20T00:26:26;8.20;53.80
45537;DHT22;31262;51.978;5.924;2022-11-20T00:28:52;8.10;53.80
45537;DHT22;31262;51.978;5.924;2022-11-20T00:31:18;8.10;54.10
45537;DHT22;31262;51.978;5.924;2022-11-20T00:33:44;8.10;54.20
45537;DHT22;31262;51.978;5.924;2022-11-20T00:36:13;8.00;54.20
45537;DHT22;31262;51.978;5.924;2022-11-20T00:38:39;8.00;54.30
45537;DHT22;31262;51.978;5.924;2022-11-20T00:41:06;8.10;54.40
45537;DHT22;31262;51.978;5.924;2022-11-20T00:43:32;8.20;54.30
45537;DHT22;31262;51.978;5.924;2022-11-20T00:45:58;8.00;54.10
45537;DHT22;31262;51.978;5.924;2022-11-20T00:48:23;7.90;54.20
45537;DHT22;31262;51.978;5.924;2022-11-20T00:50:49;7.90;54.40
45537;DHT22;31262;51.978;5.924;2022-11-20T00:53:14;7.90;54.50
45537;DHT22;31262;51.978;5.924;2022-11-20T00:55:40;7.70;54.40
45537;DHT22;31262;51.978;5.924;2022-11-20T00:58:06;7.90;54.70
45537;DHT22;31262;51.978;5.924;2022-11-20T01:00:31;7.90;54.70
45537;DHT22;31262;51.978;5.924;2022-11-20T01:02:57;7.90;54.70
45537;DHT22;31262;51.978;5.924;2022-11-20T01:05:22;7.80;54.60
45537;DHT22;31262;51.978;5.924;2022-11-20T01:07:48;7.80;54.50
45537;DHT22;31262;51.978;5.924;2022-11-20T01:10:13;7.80;54.60
45537;DHT22;31262;51.978;5.924;2022-11-20T01:12:39;7.80;54.60
45537;DHT22;31262;51.978;5.924;2022-11-20T01:15:04;7.70;54.60
45537;DHT22;31262;51.978;5.924;2022-11-20T01:17:30;7.70;54.70
45537;DHT22;31262;51.978;5.924;2022-11-20T01:19:56;7.60;54.70
45537;DHT22;31262;51.978;5.924;2022-11-20T01:22:21;7.60;54.90
45537;DHT22;31262;51.978;5.924;2022-11-20T01:24:47;7.60;54.90
45537;DHT22;31262;51.978;5.924;2022-11-20T01:27:12;7.70;54.80
45537;DHT22;31262;51.978;5.924;2022-11-20T01:29:38;7.60;54.70
45537;DHT22;31262;51.978;5.924;2022-11-20T01:32:03;7.50;54.80
45537;DHT22;31262;51.978;5.924;2022-11-20T01:34:29;7.50;54.90
45537;DHT22;31262;51.978;5.924;2022-11-20T01:36:54;7.40;54.90
45537;DHT22;31262;51.978;5.924;2022-11-20T01:39:21;7.50;54.90
45537;DHT22;31262;51.978;5.924;2022-11-20T01:41:47;7.40;54.90
45537;DHT22;31262;51.978;5.924;2022-11-20T01:47:17;7.40;55.00
45537;DHT22;31262;51.978;5.924;2022-11-20T01:49:50;7.40;55.10
45537;DHT22;31262;51.978;5.924;2022-11-20T01:52:18;7.30;54.80
45537;DHT22;31262;51.978;5.924;2022-11-20T01:57:39;7.30;54.80
45537;DHT22;31262;51.978;5.924;2022-11-20T02:00:07;7.20;55.10
45537;DHT22;31262;51.978;5.924;2022-11-20T02:02:33;7.20;55.10
45537;DHT22;31262;51.978;5.924;2022-11-20T02:05:00;7.20;55.10
45537;DHT22;31262;51.978;5.924;2022-11-20T02:07:27;7.10;54.80
45537;DHT22;31262;51.978;5.924;2022-11-20T02:09:53;7.10;54.90
45537;DHT22;31262;51.978;5.924;2022-11-20T02:12:19;7.00;54.90
45537;DHT22;31262;51.978;5.924;2022-11-20T02:15:03;7.10;55.20
45537;DHT22;31262;51.978;5.924;2022-11-20T02:17:29;7.00;55.10
45537;DHT22;31262;51.978;5.924;2022-11-20T02:19:55;7.00;55.10
45537;DHT22;31262;51.978;5.924;2022-11-20T02:22:38;6.90;55.10
45537;DHT22;31262;51.978;5.924;2022-11-20T02:25:06;6.90;55.10
45537;DHT22;31262;51.978;5.924;2022-11-20T02:27:32;6.90;55.70
45537;DHT22;31262;51.978;5.924;2022-11-20T02:29:58;6.80;55.00
45537;DHT22;31262;51.978;5.924;2022-11-20T02:32:26;6.70;55.10
45537;DHT22;31262;51.978;5.924;2022-11-20T02:34:52;6.70;55.20
45537;DHT22;31262;51.978;5.924;2022-11-20T02:37:17;6.70;55.30
45537;DHT22;31262;51.978;5.924;2022-11-20T02:39:44;6.70;55.30
45537;DHT22;31262;51.978;5.924;2022-11-20T02:42:09;6.70;55.30
45537;DHT22;31262;51.978;5.924;2022-11-20T02:44:35;6.70;55.40
45537;DHT22;31262;51.978;5.924;2022-11-20T02:47:00;6.70;55.40
45537;DHT22;31262;51.978;5.924;2022-11-20T02:49:26;6.70;55.40
45537;DHT22;31262;51.978;5.924;2022-11-20T02:51:51;6.70;55.30
45537;DHT22;31262;51.978;5.924;2022-11-20T02:54:17;6.70;55.40
45537;DHT22;31262;51.978;5.924;2022-11-20T02:56:42;6.70;55.50
45537;DHT22;31262;51.978;5.924;2022-11-20T02:59:08;6.60;55.50
45537;DHT22;31262;51.978;5.924;2022-11-20T03:01:34;6.60;55.50
45537;DHT22;31262;51.978;5.924;2022-11-20T03:03:59;6.60;55.50
45537;DHT22;31262;51.978;5.924;2022-11-20T03:06:25;6.50;55.60
45537;DHT22;31262;51.978;5.924;2022-11-20T03:08:50;6.50;55.80
45537;DHT22;31262;51.978;5.924;2022-11-20T03:11:16;6.50;55.70
45537;DHT22;31262;51.978;5.924;2022-11-20T03:13:42;6.50;55.80
45537;DHT22;31262;51.978;5.924;2022-11-20T03:16:11;6.50;55.80
45537;DHT22;31262;51.978;5.924;2022-11-20T03:18:38;6.50;55.80
45537;DHT22;31262;51.978;5.924;2022-11-20T03:21:04;6.50;55.80
45537;DHT22;31262;51.978;5.924;2022-11-20T03:23:30;6.50;55.70
45537;DHT22;31262;51.978;5.924;2022-11-20T03:26:06;6.80;56.70
45537;DHT22;31262;51.978;5.924;2022-11-20T03:28:31;7.10;56.20
45537;DHT22;31262;51.978;5.924;2022-11-20T03:30:57;7.20;55.80
45537;DHT22;31262;51.978;5.924;2022-11-20T03:33:22;7.30;55.60
45537;DHT22;31262;51.978;5.924;2022-11-20T03:35:48;7.30;55.60
45537;DHT22;31262;51.978;5.924;2022-11-20T03:38:13;7.20;55.80
45537;DHT22;31262;51.978;5.924;2022-11-20T03:40:39;7.20;55.90
45537;DHT22;31262;51.978;5.924;2022-11-20T03:43:04;7.20;55.90
45537;DHT22;31262;51.978;5.924;2022-11-20T03:45:29;7.20;55.90
45537;DHT22;31262;51.978;5.924;2022-11-20T03:47:55;7.10;55.80
45537;DHT22;31262;51.978;5.924;2022-11-20T03:50:20;7.10;55.80
45537;DHT22;31262;51.978;5.924;2022-11-20T03:52:46;6.90;55.80
45537;DHT22;31262;51.978;5.924;2022-11-20T03:55:11;7.00;56.00
45537;DHT22;31262;51.978;5.924;2022-11-20T03:57:37;6.90;56.00
45537;DHT22;31262;51.978;5.924;2022-11-20T04:00:03;6.90;56.00
45537;DHT22;31262;51.978;5.924;2022-11-20T04:02:29;6.90;56.20
45537;DHT22;31262;51.978;5.924;2022-11-20T04:04:54;6.90;56.20
45537;DHT22;31262;51.978;5.924;2022-11-20T04:07:20;6.90;56.00
45537;DHT22;31262;51.978;5.924;2022-11-20T04:09:45;7.00;56.10
45537;DHT22;31262;51.978;5.924;2022-11-20T04:12:11;7.10;56.10
45537;DHT22;31262;51.978;5.924;2022-11-20T04:14:36;6.90;56.00
45537;DHT22;31262;51.978;5.924;2022-11-20T04:17:02;7.00;56.10
45537;DHT22;31262;51.978;5.924;2022-11-20T04:19:28;7.00;56.20
45537;DHT22;31262;51.978;5.924;2022-11-20T04:21:53;7.00;56.20
45537;DHT22;31262;51.978;5.924;2022-11-20T04:24:19;7.00;56.10
45537;DHT22;31262;51.978;5.924;2022-11-20T04:26:44;7.00;56.10
45537;DHT22;31262;51.978;5.924;2022-11-20T04:29:10;7.00;56.10
45537;DHT22;31262;51.978;5.924;2022-11-20T04:31:36;6.90;56.00
45537;DHT22;31262;51.978;5.924;2022-11-20T04:34:03;6.90;56.10
45537;DHT22;31262;51.978;5.924;2022-11-20T04:36:28;6.80;56.20
45537;DHT22;31262;51.978;5.924;2022-11-20T04:39:04;6.80;56.30
45537;DHT22;31262;51.978;5.924;2022-11-20T04:41:31;6.80;56.40
45537;DHT22;31262;51.978;5.924;2022-11-20T04:43:57;6.80;56.30
45537;DHT22;31262;51.978;5.924;2022-11-20T04:46:29;6.70;56.20
45537;DHT22;31262;51.978;5.924;2022-11-20T04:48:54;6.90;56.40
45537;DHT22;31262;51.978;5.924;2022-11-20T04:51:20;6.70;56.30
45537;DHT22;31262;51.978;5.924;2022-11-20T04:53:45;6.70;56.30
45537;DHT22;31262;51.978;5.924;2022-11-20T04:56:11;6.70;56.30
45537;DHT22;31262;51.978;5.924;2022-11-20T04:58:37;6.70;56.30
45537;DHT22;31262;51.978;5.924;2022-11-20T05:01:03;6.70;56.30
45537;DHT22;31262;51.978;5.924;2022-11-20T05:03:29;6.70;56.30
45537;DHT22;31262;51.978;5.924;2022-11-20T05:05:55;6.90;56.60
45537;DHT22;31262;51.978;5.924;2022-11-20T05:08:20;7.00;56.10
45537;DHT22;31262;51.978;5.924;2022-11-20T05:10:46;7.00;56.00
45537;DHT22;31262;51.978;5.924;2022-11-20T05:13:11;7.10;56.10
45537;DHT22;31262;51.978;5.924;2022-11-20T05:15:37;6.90;56.00
45537;DHT22;31262;51.978;5.924;2022-11-20T05:18:02;6.90;56.10
45537;DHT22;31262;51.978;5.924;2022-11-20T05:20:28;6.90;56.10
45537;DHT22;31262;51.978;5.924;2022-11-20T05:22:56;6.80;56.10
45537;DHT22;31262;51.978;5.924;2022-11-20T05:25:21;6.80;56.20
45537;DHT22;31262;51.978;5.924;2022-11-20T05:27:47;6.80;56.30
45537;DHT22;31262;51.978;5.924;2022-11-20T05:30:12;6.70;56.20
45537;DHT22;31262;51.978;5.924;2022-11-20T05:32:38;6.70;56.20
45537;DHT22;31262;51.978;5.924;2022-11-20T05:35:04;6.60;56.30
45537;DHT22;31262;51.978;5.924;2022-11-20T05:37:29;6.50;56.30
45537;DHT22;31262;51.978;5.924;2022-11-20T05:39:55;6.50;56.40
45537;DHT22;31262;51.978;5.924;2022-11-20T05:42:20;6.50;56.40
45537;DHT22;31262;51.978;5.924;2022-11-20T05:45:01;6.40;56.50
45537;DHT22;31262;51.978;5.924;2022-11-20T05:47:28;6.40;56.50
45537;DHT22;31262;51.978;5.924;2022-11-20T05:49:56;6.40;56.50
45537;DHT22;31262;51.978;5.924;2022-11-20T05:52:21;6.40;56.40
45537;DHT22;31262;51.978;5.924;2022-11-20T05:54:47;6.40;56.50
45537;DHT22;31262;51.978;5.924;2022-11-20T05:57:12;6.40;56.40
45537;DHT22;31262;51.978;5.924;2022-11-20T05:59:37;6.50;56.40
45537;DHT22;31262;51.978;5.924;2022-11-20T06:02:03;6.40;56.50
45537;DHT22;31262;51.978;5.924;2022-11-20T06:04:29;6.40;56.50
45537;DHT22;31262;51.978;5.924;2022-11-20T06:06:54;6.30;56.50
45537;DHT22;31262;51.978;5.924;2022-11-20T06:09:20;6.30;56.50
45537;DHT22;31262;51.978;5.924;2022-11-20T06:11:45;6.30;56.40
45537;DHT22;31262;51.978;5.924;2022-11-20T06:14:10;6.30;56.40
45537;DHT22;31262;51.978;5.924;2022-11-20T06:16:36;6.40;56.50
45537;DHT22;31262;51.978;5.924;2022-11-20T06:19:02;6.40;56.60
45537;DHT22;31262;51.978;5.924;2022-11-20T06:21:27;6.30;56.50
45537;DHT22;31262;51.978;5.924;2022-11-20T06:23:53;6.30;56.40
45537;DHT22;31262;51.978;5.924;2022-11-20T06:26:20;6.30;56.30
45537;DHT22;31262;51.978;5.924;2022-11-20T06:28:46;6.20;56.30
45537;DHT22;31262;51.978;5.924;2022-11-20T06:31:12;6.20;56.30
45537;DHT22;31262;51.978;5.924;2022-11-20T06:33:38;6.10;56.40
45537;DHT22;31262;51.978;5.924;2022-11-20T06:36:04;6.30;56.60
45537;DHT22;31262;51.978;5.924;2022-11-20T06:38:29;6.10;56.50
45537;DHT22;31262;51.978;5.924;2022-11-20T06:40:55;6.10;56.50
45537;DHT22;31262;51.978;5.924;2022-11-20T06:43:21;6.00;56.60
45537;DHT22;31262;51.978;5.924;2022-11-20T06:45:51;6.00;56.60
45537;DHT22;31262;51.978;5.924;2022-11-20T06:48:17;6.00;56.60
45537;DHT22;31262;51.978;5.924;2022-11-20T06:50:42;6.00;56.60
45537;DHT22;31262;51.978;5.924;2022-11-20T06:53:07;6.00;56.60
45537;DHT22;31262;51.978;5.924;2022-11-20T06:55:33;6.00;56.60
45537;DHT22;31262;51.978;5.924;2022-11-20T06:57:58;5.90;56.60
45537;DHT22;31262;51.978;5.924;2022-11-20T07:00:24;5.90;56.60
45537;DHT22;31262;51.978;5.924;2022-11-20T07:02:49;5.90;56.60
45537;DHT22;31262;51.978;5.924;2022-11-20T07:05:15;5.90;56.60
45537;DHT22;31262;51.978;5.924;2022-11-20T07:07:41;5.90;56.60
45537;DHT22;31262;51.978;5.924;2022-11-20T07:10:06;5.90;56.70
45537;DHT22;31262;51.978;5.924;2022-11-20T07:12:32;5.90;56.70
45537;DHT22;31262;51.978;5.924;2022-11-20T07:14:57;5.80;56.60
45537;DHT22;31262;51.978;5.924;2022-11-20T07:17:23;5.80;56.60
45537;DHT22;31262;51.978;5.924;2022-11-20T07:19:48;5.70;56.60
45537;DHT22;31262;51.978;5.924;2022-11-20T07:22:14;5.70;56.70
45537;DHT22;31262;51.978;5.924;2022-11-20T07:24:39;5.60;56.70
45537;DHT22;31262;51.978;5.924;2022-11-20T07:27:05;5.60;56.90
45537;DHT22;31262;51.978;5.924;2022-11-20T07:29:30;5.60;56.80
45537;DHT22;31262;51.978;5.924;2022-11-20T07:31:56;5.80;56.90
45537;DHT22;31262;51.978;5.924;2022-11-20T07:34:22;5.70;56.80
45537;DHT22;31262;51.978;5.924;2022-11-20T07:36:47;5.70;56.80
45537;DHT22;31262;51.978;5.924;2022-11-20T07:39:13;5.70;56.80
45537;DHT22;31262;51.978;5.924;2022-11-20T07:41:38;5.80;56.90
45537;DHT22;31262;51.978;5.924;2022-11-20T07:44:04;5.70;56.90
45537;DHT22;31262;51.978;5.924;2022-11-20T07:46:30;5.80;56.90
45537;DHT22;31262;51.978;5.924;2022-11-20T07:48:55;5.80;56.80
45537;DHT22;31262;51.978;5.924;2022-11-20T07:51:21;5.90;56.80
45537;DHT22;31262;51.978;5.924;2022-11-20T07:53:46;5.90;56.80
45537;DHT22;31262;51.978;5.924;2022-11-20T07:56:12;5.90;56.70
45537;DHT22;31262;51.978;5.924;2022-11-20T07:58:39;6.10;56.70
45537;DHT22;31262;51.978;5.924;2022-11-20T08:01:05;6.00;57.10
45537;DHT22;31262;51.978;5.924;2022-11-20T08:03:31;6.50;56.90
45537;DHT22;31262;51.978;5.924;2022-11-20T08:05:59;6.70;56.20
45537;DHT22;31262;51.978;5.924;2022-11-20T08:08:28;6.80;56.00
45537;DHT22;31262;51.978;5.924;2022-11-20T08:10:54;6.80;55.70
45537;DHT22;31262;51.978;5.924;2022-11-20T08:13:39;6.70;55.70
45537;DHT22;31262;51.978;5.924;2022-11-20T08:16:23;6.50;55.90
45537;DHT22;31262;51.978;5.924;2022-11-20T08:18:49;6.40;56.20
45537;DHT22;31262;51.978;5.924;2022-11-20T08:21:14;6.30;56.40
45537;DHT22;31262;51.978;5.924;2022-11-20T08:23:40;6.40;56.60
45537;DHT22;31262;51.978;5.924;2022-11-20T08:26:05;6.20;56.60
45537;DHT22;31262;51.978;5.924;2022-11-20T08:28:31;6.10;56.60
45537;DHT22;31262;51.978;5.924;2022-11-20T08:30:57;6.10;56.70
45537;DHT22;31262;51.978;5.924;2022-11-20T08:33:23;6.10;57.00
45537;DHT22;31262;51.978;5.924;2022-11-20T08:35:48;6.40;57.00
45537;DHT22;31262;51.978;5.924;2022-11-20T08:38:14;6.60;56.70
45537;DHT22;31262;51.978;5.924;2022-11-20T08:40:41;6.80;56.40
45537;DHT22;31262;51.978;5.924;2022-11-20T08:43:27;6.80;56.40
45537;DHT22;31262;51.978;5.924;2022-11-20T08:45:52;6.90;56.50
45537;DHT22;31262;51.978;5.924;2022-11-20T08:48:18;7.10;56.20
45537;DHT22;31262;51.978;5.924;2022-11-20T08:50:43;7.10;55.70
45537;DHT22;31262;51.978;5.924;2022-11-20T08:53:08;7.10;55.90
45537;DHT22;31262;51.978;5.924;2022-11-20T08:55:34;7.10;55.80
45537;DHT22;31262;51.978;5.924;2022-11-20T08:58:04;7.00;55.60
45537;DHT22;31262;51.978;5.924;2022-11-20T09:00:29;6.90;55.80
45537;DHT22;31262;51.978;5.924;2022-11-20T09:02:55;6.70;55.90
45537;DHT22;31262;51.978;5.924;2022-11-20T09:05:20;6.50;56.20
45537;DHT22;31262;51.978;5.924;2022-11-20T09:07:46;6.30;56.30
45537;DHT22;31262;51.978;5.924;2022-11-20T09:10:11;6.20;56.50
45537;DHT22;31262;51.978;5.924;2022-11-20T09:12:37;6.10;56.70
45537;DHT22;31262;51.978;5.924;2022-11-20T09:15:02;6.00;56.80
45537;DHT22;31262;51.978;5.924;2022-11-20T09:17:28;5.90;57.00
45537;DHT22;31262;51.978;5.924;2022-11-20T09:19:53;5.80;57.10
45537;DHT22;31262;51.978;5.924;2022-11-20T09:22:18;5.80;57.20
45537;DHT22;31262;51.978;5.924;2022-11-20T09:24:44;5.80;57.30
45537;DHT22;31262;51.978;5.924;2022-11-20T09:27:09;5.80;57.40
45537;DHT22;31262;51.978;5.924;2022-11-20T09:29:35;5.70;57.80
45537;DHT22;31262;51.978;5.924;2022-11-20T09:32:00;5.70;57.60
45537;DHT22;31262;51.978;5.924;2022-11-20T09:34:26;5.70;57.80
45537;DHT22;31262;51.978;5.924;2022-11-20T09:36:51;5.70;57.90
45537;DHT22;31262;51.978;5.924;2022-11-20T09:39:17;5.70;57.90
45537;DHT22;31262;51.978;5.924;2022-11-20T09:47:01;5.70;58.10
45537;DHT22;31262;51.978;5.924;2022-11-20T09:52:00;5.70;58.30
45537;DHT22;31262;51.978;5.924;2022-11-20T09:54:27;5.70;58.30
45537;DHT22;31262;51.978;5.924;2022-11-20T09:57:05;5.70;58.30
45537;DHT22;31262;51.978;5.924;2022-11-20T09:59:38;5.80;58.40
45537;DHT22;31262;51.978;5.924;2022-11-20T10:05:11;5.70;58.50
45537;DHT22;31262;51.978;5.924;2022-11-20T10:07:55;5.90;58.60
45537;DHT22;31262;51.978;5.924;2022-11-20T10:10:29;5.80;58.60
45537;DHT22;31262;51.978;5.924;2022-11-20T10:25:42;6.10;58.60
45537;DHT22;31262;51.978;5.924;2022-11-20T10:30:43;6.20;58.60
45537;DHT22;31262;51.978;5.924;2022-11-20T10:33:16;6.30;58.70
45537;DHT22;31262;51.978;5.924;2022-11-20T10:35:44;6.20;58.70
45537;DHT22;31262;51.978;5.924;2022-11-20T10:38:18;6.30;58.70
45537;DHT22;31262;51.978;5.924;2022-11-20T10:40:49;6.30;58.70
45537;DHT22;31262;51.978;5.924;2022-11-20T10:43:17;6.40;58.90
45537;DHT22;31262;51.978;5.924;2022-11-20T10:45:56;6.40;59.00
45537;DHT22;31262;51.978;5.924;2022-11-20T10:48:25;6.40;58.90
45537;DHT22;31262;51.978;5.924;2022-11-20T10:50:55;6.50;59.30
45537;DHT22;31262;51.978;5.924;2022-11-20T10:53:28;6.50;59.50
45537;DHT22;31262;51.978;5.924;2022-11-20T10:56:00;6.40;59.80
45537;DHT22;31262;51.978;5.924;2022-11-20T10:58:33;6.50;59.90
45537;DHT22;31262;51.978;5.924;2022-11-20T11:01:17;6.50;60.10
45537;DHT22;31262;51.978;5.924;2022-11-20T11:03:43;6.50;60.20
45537;DHT22;31262;51.978;5.924;2022-11-20T11:08:53;6.40;60.90
45537;DHT22;31262;51.978;5.924;2022-11-20T11:11:29;6.30;61.10
45537;DHT22;31262;51.978;5.924;2022-11-20T11:14:09;6.40;61.00
45537;DHT22;31262;51.978;5.924;2022-11-20T11:16:35;6.40;60.90
45537;DHT22;31262;51.978;5.924;2022-11-20T11:19:04;6.50;60.70
45537;DHT22;31262;51.978;5.924;2022-11-20T11:21:30;6.60;60.80
45537;DHT22;31262;51.978;5.924;2022-11-20T11:23:59;6.50;60.50
45537;DHT22;31262;51.978;5.924;2022-11-20T11:26:25;6.60;60.60
45537;DHT22;31262;51.978;5.924;2022-11-20T11:28:54;6.70;60.60
45537;DHT22;31262;51.978;5.924;2022-11-20T11:31:24;6.70;60.50
45537;DHT22;31262;51.978;5.924;2022-11-20T11:33:49;6.80;60.50
45537;DHT22;31262;51.978;5.924;2022-11-20T11:36:20;6.80;60.30
45537;DHT22;31262;51.978;5.924;2022-11-20T11:38:48;7.00;60.30
45537;DHT22;31262;51.978;5.924;2022-11-20T11:41:17;7.00;60.20
45537;DHT22;31262;51.978;5.924;2022-11-20T11:43:51;7.00;60.20
45537;DHT22;31262;51.978;5.924;2022-11-20T11:46:36;7.10;60.20
45537;DHT22;31262;51.978;5.924;2022-11-20T11:49:13;7.10;60.10
45537;DHT22;31262;51.978;5.924;2022-11-20T11:51:41;7.10;60.10
45537;DHT22;31262;51.978;5.924;2022-11-20T11:54:14;7.10;60.10
45537;DHT22;31262;51.978;5.924;2022-11-20T11:56:40;7.20;60.20
45537;DHT22;31262;51.978;5.924;2022-11-20T11:59:06;7.10;60.10
45537;DHT22;31262;51.978;5.924;2022-11-20T12:04:13;7.10;60.20
45537;DHT22;31262;51.978;5.924;2022-11-20T12:06:42;7.20;60.30
45537;DHT22;31262;51.978;5.924;2022-11-20T12:09:10;7.10;60.30
45537;DHT22;31262;51.978;5.924;2022-11-20T12:16:39;7.10;60.60
45537;DHT22;31262;51.978;5.924;2022-11-20T12:19:08;7.20;60.70
45537;DHT22;31262;51.978;5.924;2022-11-20T12:24:13;7.10;60.80
45537;DHT22;31262;51.978;5.924;2022-11-20T12:37:22;7.20;60.70
45537;DHT22;31262;51.978;5.924;2022-11-20T12:39:51;7.20;60.80
45537;DHT22;31262;51.978;5.924;2022-11-20T12:42:29;7.30;61.00
45537;DHT22;31262;51.978;5.924;2022-11-20T12:50:11;7.20;60.90
45537;DHT22;31262;51.978;5.924;2022-11-20T12:52:48;7.30;60.90
45537;DHT22;31262;51.978;5.924;2022-11-20T13:02:37;7.30;60.90
45537;DHT22;31262;51.978;5.924;2022-11-20T13:07:40;7.40;61.10
45537;DHT22;31262;51.978;5.924;2022-11-20T13:10:06;7.40;61.00
45537;DHT22;31262;51.978;5.924;2022-11-20T13:12:40;7.40;61.20
45537;DHT22;31262;51.978;5.924;2022-11-20T13:17:46;7.30;62.00
45537;DHT22;31262;51.978;5.924;2022-11-20T13:20:14;7.30;62.00
45537;DHT22;31262;51.978;5.924;2022-11-20T13:25:27;7.30;62.10
45537;DHT22;31262;51.978;5.924;2022-11-20T13:27:53;7.40;62.00
45537;DHT22;31262;51.978;5.924;2022-11-20T13:30:20;7.30;61.80
45537;DHT22;31262;51.978;5.924;2022-11-20T13:32:56;7.40;61.80
45537;DHT22;31262;51.978;5.924;2022-11-20T13:37:59;7.50;61.90
45537;DHT22;31262;51.978;5.924;2022-11-20T13:40:25;7.50;61.80
45537;DHT22;31262;51.978;5.924;2022-11-20T13:45:25;7.50;61.90
45537;DHT22;31262;51.978;5.924;2022-11-20T13:47:52;7.60;61.80
45537;DHT22;31262;51.978;5.924;2022-11-20T13:50:17;7.70;61.70
45537;DHT22;31262;51.978;5.924;2022-11-20T14:00:19;7.60;62.20
45537;DHT22;31262;51.978;5.924;2022-11-20T14:02:58;7.60;62.30
45537;DHT22;31262;51.978;5.924;2022-11-20T14:05:25;7.60;62.90
45537;DHT22;31262;51.978;5.924;2022-11-20T14:07:51;7.70;63.00
45537;DHT22;31262;51.978;5.924;2022-11-20T14:10:27;7.80;62.70
45537;DHT22;31262;51.978;5.924;2022-11-20T14:12:55;8.10;62.40
45537;DHT22;31262;51.978;5.924;2022-11-20T14:15:38;8.30;62.10
45537;DHT22;31262;51.978;5.924;2022-11-20T14:18:18;8.70;61.80
45537;DHT22;31262;51.978;5.924;2022-11-20T14:20:45;9.20;60.90
45537;DHT22;31262;51.978;5.924;2022-11-20T14:23:10;9.60;60.10
45537;DHT22;31262;51.978;5.924;2022-11-20T14:25:37;9.80;59.80
45537;DHT22;31262;51.978;5.924;2022-11-20T14:28:10;9.90;59.60
45537;DHT22;31262;51.978;5.924;2022-11-20T14:30:43;10.00;59.60
45537;DHT22;31262;51.978;5.924;2022-11-20T14:33:10;10.10;59.70
45537;DHT22;31262;51.978;5.924;2022-11-20T14:35:37;10.30;59.40
45537;DHT22;31262;51.978;5.924;2022-11-20T14:38:08;10.50;59.10
45537;DHT22;31262;51.978;5.924;2022-11-20T14:40:36;10.60;58.80
45537;DHT22;31262;51.978;5.924;2022-11-20T14:43:04;10.70;59.00
45537;DHT22;31262;51.978;5.924;2022-11-20T14:45:40;10.70;59.00
45537;DHT22;31262;51.978;5.924;2022-11-20T14:48:08;10.50;59.10
45537;DHT22;31262;51.978;5.924;2022-11-20T14:50:34;10.50;59.50
45537;DHT22;31262;51.978;5.924;2022-11-20T14:53:00;10.50;59.70
45537;DHT22;31262;51.978;5.924;2022-11-20T14:58:00;10.60;59.40
45537;DHT22;31262;51.978;5.924;2022-11-20T15:00:26;10.80;59.30
45537;DHT22;31262;51.978;5.924;2022-11-20T15:02:52;11.00;59.10
45537;DHT22;31262;51.978;5.924;2022-11-20T15:05:19;11.20;58.90
45537;DHT22;31262;51.978;5.924;2022-11-20T15:07:46;11.40;58.60
45537;DHT22;31262;51.978;5.924;2022-11-20T15:10:13;11.70;58.30
45537;DHT22;31262;51.978;5.924;2022-11-20T15:15:15;12.20;57.40
45537;DHT22;31262;51.978;5.924;2022-11-20T15:17:41;12.20;57.40
45537;DHT22;31262;51.978;5.924;2022-11-20T15:20:14;12.20;57.70
45537;DHT22;31262;51.978;5.924;2022-11-20T15:22:41;12.30;57.70
45537;DHT22;31262;51.978;5.924;2022-11-20T15:25:13;12.60;57.30
45537;DHT22;31262;51.978;5.924;2022-11-20T15:27:38;12.70;57.10
45537;DHT22;31262;51.978;5.924;2022-11-20T15:30:11;12.90;56.80
45537;DHT22;31262;51.978;5.924;2022-11-20T15:32:37;13.00;57.30
45537;DHT22;31262;51.978;5.924;2022-11-20T15:35:02;13.20;56.50
45537;DHT22;31262;51.978;5.924;2022-11-20T15:37:28;13.30;56.30
45537;DHT22;31262;51.978;5.924;2022-11-20T15:39:53;13.40;56.20
45537;DHT22;31262;51.978;5.924;2022-11-20T15:42:19;13.60;56.10
45537;DHT22;31262;51.978;5.924;2022-11-20T15:44:44;13.50;55.70
45537;DHT22;31262;51.978;5.924;2022-11-20T15:47:10;13.70;55.70
45537;DHT22;31262;51.978;5.924;2022-11-20T15:49:35;13.70;55.80
45537;DHT22;31262;51.978;5.924;2022-11-20T15:52:01;13.40;56.00
45537;DHT22;31262;51.978;5.924;2022-11-20T15:54:27;13.30;56.20
45537;DHT22;31262;51.978;5.924;2022-11-20T15:56:52;13.20;56.60
45537;DHT22;31262;51.978;5.924;2022-11-20T15:59:18;13.20;56.60
45537;DHT22;31262;51.978;5.924;2022-11-20T16:01:43;13.30;56.40
45537;DHT22;31262;51.978;5.924;2022-11-20T16:04:10;13.50;55.90
45537;DHT22;31262;51.978;5.924;2022-11-20T16:06:35;13.60;55.40
45537;DHT22;31262;51.978;5.924;2022-11-20T16:09:01;13.70;55.40
45537;DHT22;31262;51.978;5.924;2022-11-20T16:11:26;13.70;55.40
45537;DHT22;31262;51.978;5.924;2022-11-20T16:13:52;13.80;55.50
45537;DHT22;31262;51.978;5.924;2022-11-20T16:16:37;13.90;55.30
45537;DHT22;31262;51.978;5.924;2022-11-20T16:19:03;14.20;54.90
45537;DHT22;31262;51.978;5.924;2022-11-20T16:21:28;14.50;54.40
45537;DHT22;31262;51.978;5.924;2022-11-20T16:23:57;14.70;54.00
45537;DHT22;31262;51.978;5.924;2022-11-20T16:26:23;14.90;53.90
45537;DHT22;31262;51.978;5.924;2022-11-20T16:28:48;15.10;53.60
45537;DHT22;31262;51.978;5.924;2022-11-20T16:31:17;15.30;53.10
45537;DHT22;31262;51.978;5.924;2022-11-20T16:33:43;15.60;52.80
45537;DHT22;31262;51.978;5.924;2022-11-20T16:36:09;15.80;52.30
45537;DHT22;31262;51.978;5.924;2022-11-20T16:38:35;15.80;52.00
45537;DHT22;31262;51.978;5.924;2022-11-20T16:41:01;15.70;52.10
45537;DHT22;31262;51.978;5.924;2022-11-20T16:43:27;15.70;52.30
45537;DHT22;31262;51.978;5.924;2022-11-20T16:45:52;15.60;52.10
45537;DHT22;31262;51.978;5.924;2022-11-20T16:48:18;15.60;52.20
45537;DHT22;31262;51.978;5.924;2022-11-20T16:50:50;15.50;52.20
45537;DHT22;31262;51.978;5.924;2022-11-20T16:53:17;15.50;52.00
45537;DHT22;31262;51.978;5.924;2022-11-20T16:55:42;15.50;52.20
45537;DHT22;31262;51.978;5.924;2022-11-20T16:58:08;15.60;52.00
45537;DHT22;31262;51.978;5.924;2022-11-20T17:00:37;15.60;52.00
45537;DHT22;31262;51.978;5.924;2022-11-20T17:03:03;15.70;52.00
45537;DHT22;31262;51.978;5.924;2022-11-20T17:05:29;15.70;51.80
45537;DHT22;31262;51.978;5.924;2022-11-20T17:07:55;15.80;51.60
45537;DHT22;31262;51.978;5.924;2022-11-20T17:10:20;15.90;51.50
45537;DHT22;31262;51.978;5.924;2022-11-20T17:12:46;16.00;51.30
45537;DHT22;31262;51.978;5.924;2022-11-20T17:15:11;16.10;51.40
45537;DHT22;31262;51.978;5.924;2022-11-20T17:17:37;16.20;51.30